Aviation Digital Data Service (ADDS)

Output produced by METARs form (0701 UTC 24 March 2019)
found at http://www.aviationweather.gov/metar/data/
 
DAUA 240600Z 07010KT CAVOK 13/M01 Q1018
TAF DAUA 240500Z 2406/2506 06010KT CAVOK 
     PROB40 
     TEMPO 2408/2412 08022KT 4000 DRSA
       
DABB 240630Z 22005KT 8000 FEW023 10/09 Q1024
TAF DABB 240500Z 2406/2506 22007KT 8000 FEW023 
     TEMPO 2406/2409 2000 BR BKN008 
     TEMPO 2406/2408 0200 FG BKN002 
     BECMG 2412/2415 05011KT 
     BECMG 2420/2422 VRB02KT 
     PROB30 
     TEMPO 2500/2506 3000 BR BKN010
       
DABT 240600Z 00000KT 0800 FG FEW020 03/03 Q1025
TAF DABT 240500Z 2406/2506 30007KT 4000 BR FEW010 SCT020 
     TEMPO 2406/2409 2000 BR BKN008 
     PROB40 
     TEMPO 2406/2408 0200 FG BKN002 
     PROB30 
     TEMPO 2412/2418 -RA FEW023TCU BKN020
       
DAOR 240600Z 03004KT 9999 -RA SCT033 OVC100 11/10 Q1022
TAF DAOR 240500Z 2406/2415 11008KT 8000 SCT033 BKN100 
     TEMPO 2406/2414 5000 -RA FEW033CB 
     PROB30 
     TEMPO 2408/2412 3000 RA FEW030CB
       
DAAE 240600Z 22011KT 9000 NSC 10/09 Q1024
TAF DAAE 240500Z 2406/2506 24007KT 7000 FEW020 
     PROB40 
     TEMPO 2406/2408 2000 BR BKN008 
     BECMG 2409/2411 13010KT 
     PROB30 
     TEMPO 2412/2418 FEW023TCU 
     BECMG 2419/2421 VRB02KT
       
DAUB 240600Z 33006KT CAVOK 11/05 Q1024
TAF DAUB 240500Z 2406/2506 30008KT 9999 FEW030 
     BECMG 2410/2412 16010KT 
     PROB30 
     TEMPO 2412/2418 FEW030TCU 
     BECMG 2418/2420 05007KT
       
DATM 240600Z 08010KT 9999 FEW046 SCT100 22/04 Q1013
DAAD 240600Z 13001KT CAVOK 06/05 Q1025
DAOI 240600Z 06007KT 9999 SCT023 10/08 Q1021
TAF DAOI 240500Z 2406/2506 06008KT 9999 FEW023 
     PROB4 
     TEMPO 2406/2409 1500 BR
       
DABC 240630Z VRB02KT 0050 FG BKN003 05/05 Q1025
TAF DABC 240500Z 2406/2506 31008KT 0100 FG BKN002 
     TEMPO 2406/2409 2000 BR BKN008 
     BECMG 2409/2411 9999 FEW020 
     PROB30 
     TEMPO 2412/2418 FEW020TCU
       
DAAG 240630Z 11003KT 050V150 6000 NSC 09/09 Q1023
TAF DAAG 240500Z 2406/2506 VRB02KT 4000 BR FEW020 
     PROB30 
     TEMPO 2406/2408 0800 FG 
     BECMG 2408/2411 8000 NSW 
     BECMG 2412/2415 06010KT 
     PROB30 2415/2418 FEW030CB 
     BECMG 2418/2421 VRB02KT
       
DAAJ 240600Z 01009KT CAVOK 15/01 Q1019
TAF DAAJ 240500Z 2406/2506 06010KT CAVOK
       
DAUE 240600Z 06008KT CAVOK 12/03 Q1022
DAUO 240600Z 12003KT CAVOK 10/07 Q1023
TAF DAUO 240500Z 2406/2415 04006KT CAVOK
       
DAUG 240600Z 35004KT CAVOK 08/03 Q1024
TAF DAUG 240500Z 2406/2506 06008KT 9999 FEW040 
     PROB30 
     TEMPO 2415/2420 FEW040TCU
       
DAUH 240630Z 34002KT CAVOK 10/03 Q1022
TAF DAUH 240500Z 2406/2506 05008KT CAVOK
       
DAAP 240600Z 14004KT CAVOK 09/00 Q1021
TAF DAAP 240500Z 2406/2415 09008KT CAVOK
       
DAUZ 240600Z 04007KT CAVOK 08/M02 Q1021
TAF DAUZ 240500Z 2406/2506 04010KT CAVOK 
     BECMG 2418/2421 14010KT
       
DAUI 240600Z 06017KT CAVOK 16/01 Q1018
TAF DAUI 240500Z 2406/2506 07014KT CAVOK 
     PROB40 
     TEMPO 2407/2414 07024KT 4000 DRSA
       
DAAV 240600Z 14004KT CAVOK 10/07 Q1024
TAF DAAV 240500Z 2406/2506 20008KT 8000 FEW020 
     PROB40 
     TEMPO 2406/2408 2000 BR BKN008 
     BECMG 2412/2415 03010KT 
     PROB30 
     TEMPO 2412/2418 FEW020TCU 
     BECMG 2419/2421 VRB02KT
       
DAUL 240600Z 00000KT CAVOK 04/04 Q1024
TAF DAUL 240500Z 2406/2415 VRB02KT CAVOK 
     BECMG 2409/2412 11010KT
       
DAOV 240600Z 17005KT CAVOK 09/05 Q1020
TAF DAOV 240500Z 2406/2415 13008KT CAVOK
       
DAAY 240600Z 18008KT 9999 SCT026 SCT100 11/01 Q1023
TAF DAAY 240500Z 2406/2415 17012KT 9999 FEW026
       
DAOO 240630Z 02010KT 9999 FEW023 BKN233 12/09 Q1019
TAF DAOO 240500Z 2406/2506 02010KT 9999 FEW026 
     BECMG 2409/2412 14010KT 
     BECMG 2412/2414 VRB02KT FEW030 BKN100
       
DAOL 240600Z 06012KT 9999 FEW020 SCT200 11/10 Q1019
DAUU 240600Z 33004KT CAVOK 08/03 Q1023
TAF DAUU 240500Z 2406/2415 02008KT CAVOK
       
DAAS 240600Z 03003KT 4000 BR FEW010 03/02 Q1025
TAF DAAS 240500Z 2406/2506 22008KT 9999 FEW026 
     TEMPO 2406/2409 2000 BR BKN008 
     PROB40 
     TEMPO 2406/2408 0300 FG BKN002 
     PROB30 
     TEMPO 2412/2418 -RA FEW023TCU
       
DAAT 240630Z 36005KT CAVOK 15/M12 Q1020
TAF DAAT 240500Z 2406/2506 06008KT CAVOK 
     BECMG 2411/2414 26010KT 
     BECMG 2420/2423 07008KT
       
DABS 240600Z 00000KT 0100 FG BKN003 04/04 Q1025
TAF DABS 240500Z 2406/2506 17007KT 0100 FG BKN002 
     TEMPO 2406/2409 2000 BR BKN008 
     BECMG 2409/2412 06010KT 9999 FEW020 
     BECMG 2420/2422 VRB02KT
       
DAOB 240618Z 07006KT 0800 FG NSC 03/03 Q1023
TAF DAOB 240500Z 2406/2506 09008KT 9999 FEW026 
     PROB40 2406/2409 3000 BR 
     PROB30 
     TEMPO 2406/2408 0800 FG BKN010 
     BECMG 2409/2412 17012KT 
     PROB40 
     TEMPO 2416/2420 5000 -RA FEW026CB
       
DAFH 240600Z 34005KT CAVOK 06/03 Q1024
DAUT 240600Z 07013KT CAVOK 13/01 Q1019
TAF DAUT 240500Z 2406/2415 06014KT CAVOK
       
DAOF 240600Z 07016KT 8000 FEW046 14/08 Q1014
TAF DAOF 240500Z 2406/2415 06015KT 7000 SCT046 SCT100 
     PROB40 
     TEMPO 2406/2412 06015G30KT 3000 DRSA
       
DAON 240630Z 21004KT 9999 SCT026 SCT100 12/07 Q1019
TAF DAON 240500Z 2406/2506 VRB02KT 9999 FEW023 
     PROB40 
     TEMPO 2406/2408 1500 BR 
     BECMG 2409/2412 20012KT FEW030 SCT100
       
DAUK 240600Z 03003KT CAVOK 10/06 Q1023
TAF DAUK 240500Z 2406/2415 04006KT CAVOK